Terminal Aerodrome Forecast
Issued by NWS

Home | Current Version | Previous Version | Graphics & Text | Print | Product List | Glossary On
Versions: 1 2 3 4 5 6 7 8 9 10 11 12 13 14 15 16 17 18 19 20 21 22 23 24 25 26 27 28 29
332
FTUS42 KMHX 031815 AAH
TAFOAJ
TAF AMD
KOAJ 031815Z 0318/0418 23011KT P6SM FEW080
     FM032300 23009KT P6SM VCTS BKN040CB
     FM040600 00000KT 3SM BR BKN011
     FM040700 00000KT 1SM BR BKN005
     FM041400 24005KT P6SM BKN050
     FM041600 24007KT P6SM BKN100
      AMD LTD TO CLD VIS AND WIND=

USA.gov is the U.S. government's official web portal to all federal, state and local government web resources and services.